sensor_id;sensor_type;location;lat;lon;timestamp;pressure;altitude;pressure_sealevel;temperature;humidity
57779;BME280;43608;49.486;9.640;2022-08-14T00:00:14;98408.56;;;17.69;62.91
57779;BME280;43608;49.486;9.640;2022-08-14T00:00:44;98402.31;;;17.68;62.93
57779;BME280;43608;49.486;9.640;2022-08-14T00:01:15;98403.28;;;17.66;63.05
57779;BME280;43608;49.486;9.640;2022-08-14T00:01:45;98403.28;;;17.66;63.09
57779;BME280;43608;49.486;9.640;2022-08-14T00:02:16;98401.59;;;17.63;62.93
57779;BME280;43608;49.486;9.640;2022-08-14T00:02:47;98405.19;;;17.64;63.10
57779;BME280;43608;49.486;9.640;2022-08-14T00:03:23;98393.88;;;17.56;63.21
57779;BME280;43608;49.486;9.640;2022-08-14T00:03:53;98406.22;;;17.60;63.26
57779;BME280;43608;49.486;9.640;2022-08-14T00:04:24;98392.22;;;17.51;63.35
57779;BME280;43608;49.486;9.640;2022-08-14T00:04:55;98404.53;;;17.57;63.34
57779;BME280;43608;49.486;9.640;2022-08-14T00:05:25;98403.66;;;17.57;63.65
57779;BME280;43608;49.486;9.640;2022-08-14T00:05:58;98402.78;;;17.56;63.54
57779;BME280;43608;49.486;9.640;2022-08-14T00:06:28;98401.91;;;17.56;63.51
57779;BME280;43608;49.486;9.640;2022-08-14T00:06:59;98389.59;;;17.50;63.27
57779;BME280;43608;49.486;9.640;2022-08-14T00:07:29;98391.28;;;17.53;63.59
57779;BME280;43608;49.486;9.640;2022-08-14T00:07:59;98378.13;;;17.46;63.76
57779;BME280;43608;49.486;9.640;2022-08-14T00:08:30;98386.84;;;17.53;63.76
57779;BME280;43608;49.486;9.640;2022-08-14T00:09:01;98381.00;;;17.42;63.82
57779;BME280;43608;49.486;9.640;2022-08-14T00:09:31;98393.13;;;17.52;63.74
57779;BME280;43608;49.486;9.640;2022-08-14T00:10:03;98390.50;;;17.50;64.16
57779;BME280;43608;49.486;9.640;2022-08-14T00:10:34;98384.25;;;17.50;64.19
57779;BME280;43608;49.486;9.640;2022-08-14T00:11:05;98377.38;;;17.43;64.38
57779;BME280;43608;49.486;9.640;2022-08-14T00:11:35;98387.00;;;17.48;64.42
57779;BME280;43608;49.486;9.640;2022-08-14T00:12:06;98386.16;;;17.46;64.38
57779;BME280;43608;49.486;9.640;2022-08-14T00:12:39;98383.59;;;17.43;64.51
57779;BME280;43608;49.486;9.640;2022-08-14T00:13:11;98388.03;;;17.44;64.71
57779;BME280;43608;49.486;9.640;2022-08-14T00:13:41;98380.94;;;17.43;64.70
57779;BME280;43608;49.486;9.640;2022-08-14T00:14:12;98376.50;;;17.42;64.79
57779;BME280;43608;49.486;9.640;2022-08-14T00:14:42;98364.31;;;17.33;64.46
57779;BME280;43608;49.486;9.640;2022-08-14T00:15:28;98374.03;;;17.36;64.79
57779;BME280;43608;49.486;9.640;2022-08-14T00:15:59;98380.16;;;17.40;64.65
57779;BME280;43608;49.486;9.640;2022-08-14T00:16:30;98381.97;;;17.39;64.63
57779;BME280;43608;49.486;9.640;2022-08-14T00:17:01;98348.66;;;17.23;64.82
57779;BME280;43608;49.486;9.640;2022-08-14T00:17:31;98386.44;;;17.39;64.77
57779;BME280;43608;49.486;9.640;2022-08-14T00:18:02;98383.75;;;17.39;64.98
57779;BME280;43608;49.486;9.640;2022-08-14T00:18:33;98387.41;;;17.38;64.78
57779;BME280;43608;49.486;9.640;2022-08-14T00:19:03;98383.88;;;17.36;64.92
57779;BME280;43608;49.486;9.640;2022-08-14T00:19:34;98385.72;;;17.35;65.04
57779;BME280;43608;49.486;9.640;2022-08-14T00:20:05;98364.66;;;17.24;64.89
57779;BME280;43608;49.486;9.640;2022-08-14T00:20:39;98387.50;;;17.34;65.04
57779;BME280;43608;49.486;9.640;2022-08-14T00:21:10;98380.38;;;17.33;65.13
57779;BME280;43608;49.486;9.640;2022-08-14T00:21:40;98388.41;;;17.33;65.21
57779;BME280;43608;49.486;9.640;2022-08-14T00:22:11;98382.25;;;17.31;65.09
57779;BME280;43608;49.486;9.640;2022-08-14T00:22:47;98373.44;;;17.28;65.07
57779;BME280;43608;49.486;9.640;2022-08-14T00:23:18;98377.81;;;17.30;65.25
57779;BME280;43608;49.486;9.640;2022-08-14T00:23:48;98381.44;;;17.29;65.11
57779;BME280;43608;49.486;9.640;2022-08-14T00:24:21;98371.66;;;17.28;65.17
57779;BME280;43608;49.486;9.640;2022-08-14T00:24:52;98375.44;;;17.23;64.91
57779;BME280;43608;49.486;9.640;2022-08-14T00:25:22;98354.22;;;17.16;65.16
57779;BME280;43608;49.486;9.640;2022-08-14T00:25:54;98374.38;;;17.27;65.27
57779;BME280;43608;49.486;9.640;2022-08-14T00:26:24;98367.31;;;17.24;65.30
57779;BME280;43608;49.486;9.640;2022-08-14T00:26:56;98366.47;;;17.24;65.28
57779;BME280;43608;49.486;9.640;2022-08-14T00:27:27;98377.13;;;17.25;65.29
57779;BME280;43608;49.486;9.640;2022-08-14T00:27:57;98371.81;;;17.24;65.45
57779;BME280;43608;49.486;9.640;2022-08-14T00:28:28;98365.59;;;17.23;65.53
57779;BME280;43608;49.486;9.640;2022-08-14T00:28:58;98365.63;;;17.22;65.60
57779;BME280;43608;49.486;9.640;2022-08-14T00:29:30;98372.81;;;17.21;65.39
57779;BME280;43608;49.486;9.640;2022-08-14T00:30:00;98361.31;;;17.17;65.50
57779;BME280;43608;49.486;9.640;2022-08-14T00:30:31;98342.06;;;17.08;65.53
57779;BME280;43608;49.486;9.640;2022-08-14T00:31:02;98372.88;;;17.20;65.77
57779;BME280;43608;49.486;9.640;2022-08-14T00:31:33;98348.34;;;17.07;65.75
57779;BME280;43608;49.486;9.640;2022-08-14T00:32:04;98369.34;;;17.17;65.87
57779;BME280;43608;49.486;9.640;2022-08-14T00:32:34;98376.53;;;17.17;65.91
57779;BME280;43608;49.486;9.640;2022-08-14T00:33:05;98352.91;;;17.03;66.00
57779;BME280;43608;49.486;9.640;2022-08-14T00:33:36;98376.59;;;17.15;66.02
57779;BME280;43608;49.486;9.640;2022-08-14T00:34:07;98350.38;;;17.00;65.93
57779;BME280;43608;49.486;9.640;2022-08-14T00:34:37;98374.00;;;17.12;66.18
57779;BME280;43608;49.486;9.640;2022-08-14T00:35:08;98375.81;;;17.12;66.13
57779;BME280;43608;49.486;9.640;2022-08-14T00:35:39;98367.84;;;17.10;66.30
57779;BME280;43608;49.486;9.640;2022-08-14T00:36:09;98372.25;;;17.11;66.16
57779;BME280;43608;49.486;9.640;2022-08-14T00:36:40;98348.66;;;16.97;66.39
57779;BME280;43608;49.486;9.640;2022-08-14T00:37:10;98347.84;;;16.95;66.49
57779;BME280;43608;49.486;9.640;2022-08-14T00:37:44;98372.38;;;17.08;66.54
57779;BME280;43608;49.486;9.640;2022-08-14T00:38:16;98368.84;;;17.08;66.67
57779;BME280;43608;49.486;9.640;2022-08-14T00:38:46;98367.94;;;17.07;66.77
57779;BME280;43608;49.486;9.640;2022-08-14T00:39:17;98363.50;;;17.06;66.79
57779;BME280;43608;49.486;9.640;2022-08-14T00:39:47;98364.56;;;17.02;66.74
57779;BME280;43608;49.486;9.640;2022-08-14T00:40:18;98368.88;;;17.06;66.66
57779;BME280;43608;49.486;9.640;2022-08-14T00:40:49;98363.56;;;17.05;66.54
57779;BME280;43608;49.486;9.640;2022-08-14T00:41:20;98369.81;;;17.05;66.66
57779;BME280;43608;49.486;9.640;2022-08-14T00:41:50;98364.47;;;17.05;66.57
57779;BME280;43608;49.486;9.640;2022-08-14T00:42:21;98362.72;;;17.04;66.58
57779;BME280;43608;49.486;9.640;2022-08-14T00:42:52;98357.56;;;16.98;66.42
57779;BME280;43608;49.486;9.640;2022-08-14T00:43:23;98363.75;;;17.00;66.34
57779;BME280;43608;49.486;9.640;2022-08-14T00:43:53;98361.88;;;17.02;66.41
57779;BME280;43608;49.486;9.640;2022-08-14T00:44:23;98358.47;;;16.98;66.62
57779;BME280;43608;49.486;9.640;2022-08-14T00:44:54;98370.88;;;17.01;66.57
57779;BME280;43608;49.486;9.640;2022-08-14T00:45:25;98367.41;;;16.97;66.59
57779;BME280;43608;49.486;9.640;2022-08-14T00:45:56;98362.06;;;16.97;66.70
57779;BME280;43608;49.486;9.640;2022-08-14T00:46:27;98359.44;;;16.96;66.53
57779;BME280;43608;49.486;9.640;2022-08-14T00:46:58;98359.47;;;16.94;66.67
57779;BME280;43608;49.486;9.640;2022-08-14T00:47:29;98355.09;;;16.92;66.82
57779;BME280;43608;49.486;9.640;2022-08-14T00:48:00;98324.47;;;16.74;66.72
57779;BME280;43608;49.486;9.640;2022-08-14T00:48:31;98340.97;;;16.87;66.73
57779;BME280;43608;49.486;9.640;2022-08-14T00:49:02;98350.75;;;16.88;66.68
57779;BME280;43608;49.486;9.640;2022-08-14T00:49:32;98359.59;;;16.91;66.83
57779;BME280;43608;49.486;9.640;2022-08-14T00:50:05;98360.50;;;16.90;66.90
57779;BME280;43608;49.486;9.640;2022-08-14T00:50:36;98353.38;;;16.89;66.94
57779;BME280;43608;49.486;9.640;2022-08-14T00:51:08;98338.69;;;16.76;67.09
57779;BME280;43608;49.486;9.640;2022-08-14T00:51:39;98355.19;;;16.89;67.14
57779;BME280;43608;49.486;9.640;2022-08-14T00:52:15;98360.53;;;16.89;67.15
57779;BME280;43608;49.486;9.640;2022-08-14T00:52:48;98351.66;;;16.88;67.22
57779;BME280;43608;49.486;9.640;2022-08-14T00:53:19;98358.78;;;16.88;67.19
57779;BME280;43608;49.486;9.640;2022-08-14T00:53:49;98355.19;;;16.89;67.09
57779;BME280;43608;49.486;9.640;2022-08-14T00:54:20;98362.34;;;16.88;67.15
57779;BME280;43608;49.486;9.640;2022-08-14T00:54:51;98351.69;;;16.87;67.19
57779;BME280;43608;49.486;9.640;2022-08-14T00:55:26;98357.09;;;16.85;67.16
57779;BME280;43608;49.486;9.640;2022-08-14T00:55:57;98361.47;;;16.88;67.36
57779;BME280;43608;49.486;9.640;2022-08-14T00:56:28;98363.28;;;16.87;67.53
57779;BME280;43608;49.486;9.640;2022-08-14T00:56:58;98366.81;;;16.88;67.64
57779;BME280;43608;49.486;9.640;2022-08-14T00:57:30;98360.59;;;16.87;67.60
57779;BME280;43608;49.486;9.640;2022-08-14T00:58:02;98358.84;;;16.86;67.75
57779;BME280;43608;49.486;9.640;2022-08-14T00:58:51;98354.47;;;16.83;67.76
57779;BME280;43608;49.486;9.640;2022-08-14T00:59:27;98355.34;;;16.84;67.93
57779;BME280;43608;49.486;9.640;2022-08-14T01:00:00;98352.66;;;16.84;67.86
57779;BME280;43608;49.486;9.640;2022-08-14T01:00:30;98342.22;;;16.76;67.89
57779;BME280;43608;49.486;9.640;2022-08-14T01:01:08;98352.72;;;16.82;67.98
57779;BME280;43608;49.486;9.640;2022-08-14T01:01:40;98340.69;;;16.69;68.23
57779;BME280;43608;49.486;9.640;2022-08-14T01:02:11;98351.91;;;16.80;67.89
57779;BME280;43608;49.486;9.640;2022-08-14T01:02:43;98351.06;;;16.78;67.88
57779;BME280;43608;49.486;9.640;2022-08-14T01:03:15;98345.72;;;16.78;68.14
57779;BME280;43608;49.486;9.640;2022-08-14T01:03:47;98348.41;;;16.78;67.91
57779;BME280;43608;49.486;9.640;2022-08-14T01:04:17;98344.03;;;16.76;68.01
57779;BME280;43608;49.486;9.640;2022-08-14T01:04:48;98337.97;;;16.71;68.17
57779;BME280;43608;49.486;9.640;2022-08-14T01:05:20;98334.50;;;16.68;68.05
57779;BME280;43608;49.486;9.640;2022-08-14T01:05:54;98340.59;;;16.72;67.91
57779;BME280;43608;49.486;9.640;2022-08-14T01:06:25;98336.13;;;16.73;67.95
57779;BME280;43608;49.486;9.640;2022-08-14T01:06:57;98342.34;;;16.73;68.03
57779;BME280;43608;49.486;9.640;2022-08-14T01:07:28;98342.34;;;16.73;67.86
57779;BME280;43608;49.486;9.640;2022-08-14T01:07:59;98347.75;;;16.72;67.95
57779;BME280;43608;49.486;9.640;2022-08-14T01:08:30;98341.53;;;16.71;67.99
57779;BME280;43608;49.486;9.640;2022-08-14T01:09:02;98337.09;;;16.70;67.90
57779;BME280;43608;49.486;9.640;2022-08-14T01:09:34;98341.56;;;16.69;67.85
57779;BME280;43608;49.486;9.640;2022-08-14T01:10:05;98336.31;;;16.66;68.13
57779;BME280;43608;49.486;9.640;2022-08-14T01:10:37;98338.94;;;16.68;68.08
57779;BME280;43608;49.486;9.640;2022-08-14T01:11:20;98325.81;;;16.60;68.24
57779;BME280;43608;49.486;9.640;2022-08-14T01:11:52;98331.91;;;16.65;68.09
57779;BME280;43608;49.486;9.640;2022-08-14T01:12:24;98331.97;;;16.64;68.29
57779;BME280;43608;49.486;9.640;2022-08-14T01:12:55;98326.59;;;16.64;68.35
57779;BME280;43608;49.486;9.640;2022-08-14T01:13:28;98326.59;;;16.64;68.44
57779;BME280;43608;49.486;9.640;2022-08-14T01:13:58;98323.94;;;16.64;68.43
57779;BME280;43608;49.486;9.640;2022-08-14T01:14:30;98321.25;;;16.64;68.49
57779;BME280;43608;49.486;9.640;2022-08-14T01:15:01;98328.41;;;16.63;68.52
57779;BME280;43608;49.486;9.640;2022-08-14T01:15:32;98317.75;;;16.62;68.54
57779;BME280;43608;49.486;9.640;2022-08-14T01:16:05;98321.38;;;16.61;68.81
57779;BME280;43608;49.486;9.640;2022-08-14T01:16:36;98319.56;;;16.61;68.94
57779;BME280;43608;49.486;9.640;2022-08-14T01:17:07;98309.91;;;16.57;68.96
57779;BME280;43608;49.486;9.640;2022-08-14T01:17:37;98321.41;;;16.59;69.12
57779;BME280;43608;49.486;9.640;2022-08-14T01:18:28;98319.72;;;16.57;69.09
57779;BME280;43608;49.486;9.640;2022-08-14T01:19:18;98315.34;;;16.54;69.24
57779;BME280;43608;49.486;9.640;2022-08-14T01:20:07;98318.06;;;16.52;69.48
57779;BME280;43608;49.486;9.640;2022-08-14T01:20:56;98322.63;;;16.50;69.53
57779;BME280;43608;49.486;9.640;2022-08-14T01:21:35;98313.75;;;16.48;69.64
57779;BME280;43608;49.486;9.640;2022-08-14T01:22:06;98317.34;;;16.47;69.57
57779;BME280;43608;49.486;9.640;2022-08-14T01:22:36;98316.50;;;16.47;69.81
57779;BME280;43608;49.486;9.640;2022-08-14T01:23:08;98315.66;;;16.45;69.83
57779;BME280;43608;49.486;9.640;2022-08-14T01:23:44;98313.97;;;16.42;70.00
57779;BME280;43608;49.486;9.640;2022-08-14T01:24:14;98312.19;;;16.43;69.90
57779;BME280;43608;49.486;9.640;2022-08-14T01:24:45;98293.84;;;16.30;69.72
57779;BME280;43608;49.486;9.640;2022-08-14T01:25:16;98312.22;;;16.41;69.96
57779;BME280;43608;49.486;9.640;2022-08-14T01:25:48;98310.53;;;16.39;69.94
57779;BME280;43608;49.486;9.640;2022-08-14T01:26:20;98293.13;;;16.25;70.07
57779;BME280;43608;49.486;9.640;2022-08-14T01:26:52;98312.31;;;16.38;70.19
57779;BME280;43608;49.486;9.640;2022-08-14T01:27:23;98310.63;;;16.35;70.24
57779;BME280;43608;49.486;9.640;2022-08-14T01:27:54;98314.19;;;16.36;70.41
57779;BME280;43608;49.486;9.640;2022-08-14T01:28:27;98294.84;;;16.28;70.27
57779;BME280;43608;49.486;9.640;2022-08-14T01:29:01;98309.81;;;16.33;70.43
57779;BME280;43608;49.486;9.640;2022-08-14T01:29:31;98274.78;;;16.14;70.45
57779;BME280;43608;49.486;9.640;2022-08-14T01:30:07;98296.69;;;16.26;70.49
57779;BME280;43608;49.486;9.640;2022-08-14T01:30:38;98308.16;;;16.29;70.47
57779;BME280;43608;49.486;9.640;2022-08-14T01:31:15;98307.28;;;16.29;70.52
57779;BME280;43608;49.486;9.640;2022-08-14T01:31:46;98313.56;;;16.28;70.51
57779;BME280;43608;49.486;9.640;2022-08-14T01:32:20;98313.56;;;16.28;70.58
57779;BME280;43608;49.486;9.640;2022-08-14T01:32:51;98310.88;;;16.28;70.49
57779;BME280;43608;49.486;9.640;2022-08-14T01:33:23;98309.13;;;16.27;70.63
57779;BME280;43608;49.486;9.640;2022-08-14T01:34:00;98309.19;;;16.25;70.50
57779;BME280;43608;49.486;9.640;2022-08-14T01:34:31;98313.66;;;16.25;70.46
57779;BME280;43608;49.486;9.640;2022-08-14T01:35:02;98289.03;;;16.15;70.56
57779;BME280;43608;49.486;9.640;2022-08-14T01:35:36;98311.06;;;16.23;70.52
57779;BME280;43608;49.486;9.640;2022-08-14T01:36:07;98304.00;;;16.21;70.47
57779;BME280;43608;49.486;9.640;2022-08-14T01:36:38;98265.47;;;15.99;70.33
57779;BME280;43608;49.486;9.640;2022-08-14T01:37:09;98309.34;;;16.21;70.35
57779;BME280;43608;49.486;9.640;2022-08-14T01:37:43;98307.47;;;16.23;70.47
57779;BME280;43608;49.486;9.640;2022-08-14T01:38:14;98311.06;;;16.22;70.38
57779;BME280;43608;49.486;9.640;2022-08-14T01:38:46;98305.72;;;16.22;70.43
57779;BME280;43608;49.486;9.640;2022-08-14T01:39:17;98304.91;;;16.19;70.27
57779;BME280;43608;49.486;9.640;2022-08-14T01:39:48;98304.00;;;16.21;70.51
57779;BME280;43608;49.486;9.640;2022-08-14T01:40:21;98280.53;;;16.02;69.87
57779;BME280;43608;49.486;9.640;2022-08-14T01:40:52;98298.91;;;16.13;70.35
57779;BME280;43608;49.486;9.640;2022-08-14T01:41:25;98308.50;;;16.18;70.37
57779;BME280;43608;49.486;9.640;2022-08-14T01:41:55;98306.69;;;16.19;70.38
57779;BME280;43608;49.486;9.640;2022-08-14T01:42:29;98290.06;;;16.11;70.16
57779;BME280;43608;49.486;9.640;2022-08-14T01:43:00;98302.31;;;16.18;70.43
57779;BME280;43608;49.486;9.640;2022-08-14T01:43:31;98300.50;;;16.18;70.49
57779;BME280;43608;49.486;9.640;2022-08-14T01:44:10;98295.16;;;16.18;70.48
57779;BME280;43608;49.486;9.640;2022-08-14T01:44:42;98284.75;;;16.09;70.54
57779;BME280;43608;49.486;9.640;2022-08-14T01:45:12;98297.88;;;16.17;70.59
57779;BME280;43608;49.486;9.640;2022-08-14T01:45:44;98300.56;;;16.17;70.46
57779;BME280;43608;49.486;9.640;2022-08-14T01:46:17;98296.97;;;16.16;70.46
57779;BME280;43608;49.486;9.640;2022-08-14T01:46:47;98283.94;;;16.07;70.62
57779;BME280;43608;49.486;9.640;2022-08-14T01:47:19;98294.38;;;16.15;70.52
57779;BME280;43608;49.486;9.640;2022-08-14T01:47:50;98256.72;;;15.94;70.63
57779;BME280;43608;49.486;9.640;2022-08-14T01:48:20;98291.81;;;16.12;70.61
57779;BME280;43608;49.486;9.640;2022-08-14T01:48:52;98291.75;;;16.13;70.63
57779;BME280;43608;49.486;9.640;2022-08-14T01:49:23;98290.88;;;16.13;70.70
57779;BME280;43608;49.486;9.640;2022-08-14T01:49:54;98289.13;;;16.12;70.91
57779;BME280;43608;49.486;9.640;2022-08-14T01:50:24;98287.31;;;16.12;70.57
57779;BME280;43608;49.486;9.640;2022-08-14T01:50:55;98295.47;;;16.09;70.73
57779;BME280;43608;49.486;9.640;2022-08-14T01:51:28;98283.94;;;16.07;70.83
57779;BME280;43608;49.486;9.640;2022-08-14T01:51:58;98285.69;;;16.08;70.92
57779;BME280;43608;49.486;9.640;2022-08-14T01:52:33;98284.16;;;16.01;71.26
57779;BME280;43608;49.486;9.640;2022-08-14T01:53:05;98292.91;;;16.06;71.18
57779;BME280;43608;49.486;9.640;2022-08-14T01:53:39;98274.47;;;15.97;71.20
57779;BME280;43608;49.486;9.640;2022-08-14T01:54:13;98285.84;;;16.04;71.38
57779;BME280;43608;49.486;9.640;2022-08-14T01:54:44;98283.19;;;16.02;71.41
57779;BME280;43608;49.486;9.640;2022-08-14T01:55:14;98273.59;;;15.96;71.49
57779;BME280;43608;49.486;9.640;2022-08-14T01:55:45;98285.00;;;16.01;71.62
57779;BME280;43608;49.486;9.640;2022-08-14T01:56:22;98289.50;;;16.01;71.74
57779;BME280;43608;49.486;9.640;2022-08-14T01:57:03;98285.06;;;16.00;71.78
57779;BME280;43608;49.486;9.640;2022-08-14T01:57:34;98285.06;;;16.00;71.89
57779;BME280;43608;49.486;9.640;2022-08-14T01:58:07;98278.09;;;15.94;71.73
57779;BME280;43608;49.486;9.640;2022-08-14T01:58:43;98287.81;;;15.98;71.81
57779;BME280;43608;49.486;9.640;2022-08-14T01:59:21;98274.56;;;15.94;71.97
57779;BME280;43608;49.486;9.640;2022-08-14T01:59:55;98270.38;;;15.85;71.93
57779;BME280;43608;49.486;9.640;2022-08-14T02:00:27;98288.78;;;15.96;71.86
57779;BME280;43608;49.486;9.640;2022-08-14T02:00:58;98281.66;;;15.95;71.95
57779;BME280;43608;49.486;9.640;2022-08-14T02:01:29;98287.00;;;15.95;72.00
57779;BME280;43608;49.486;9.640;2022-08-14T02:02:02;98291.47;;;15.94;71.91
57779;BME280;43608;49.486;9.640;2022-08-14T02:02:34;98282.69;;;15.91;71.95
57779;BME280;43608;49.486;9.640;2022-08-14T02:03:05;98284.41;;;15.93;71.99
57779;BME280;43608;49.486;9.640;2022-08-14T02:03:39;98289.75;;;15.92;71.99
57779;BME280;43608;49.486;9.640;2022-08-14T02:04:10;98283.63;;;15.90;72.02
57779;BME280;43608;49.486;9.640;2022-08-14T02:04:41;98279.34;;;15.84;72.12
57779;BME280;43608;49.486;9.640;2022-08-14T02:05:12;98287.25;;;15.87;72.24
57779;BME280;43608;49.486;9.640;2022-08-14T02:05:43;98289.03;;;15.86;72.05
57779;BME280;43608;49.486;9.640;2022-08-14T02:06:13;98281.06;;;15.85;72.22
57779;BME280;43608;49.486;9.640;2022-08-14T02:06:43;98286.44;;;15.85;72.43
57779;BME280;43608;49.486;9.640;2022-08-14T02:07:14;98282.03;;;15.84;72.52
57779;BME280;43608;49.486;9.640;2022-08-14T02:07:45;98286.56;;;15.80;72.46
57779;BME280;43608;49.486;9.640;2022-08-14T02:08:15;98282.94;;;15.83;72.49
57779;BME280;43608;49.486;9.640;2022-08-14T02:08:46;98285.63;;;15.83;72.53
57779;BME280;43608;49.486;9.640;2022-08-14T02:09:17;98287.41;;;15.82;72.67
57779;BME280;43608;49.486;9.640;2022-08-14T02:09:48;98288.34;;;15.80;72.67
57779;BME280;43608;49.486;9.640;2022-08-14T02:10:18;98284.81;;;15.79;72.61
57779;BME280;43608;49.486;9.640;2022-08-14T02:10:52;98283.88;;;15.80;72.75
57779;BME280;43608;49.486;9.640;2022-08-14T02:11:43;98286.63;;;15.77;72.65
57779;BME280;43608;49.486;9.640;2022-08-14T02:12:14;98287.59;;;15.76;72.66
57779;BME280;43608;49.486;9.640;2022-08-14T02:12:44;98279.56;;;15.76;72.63
57779;BME280;43608;49.486;9.640;2022-08-14T02:13:15;98287.59;;;15.76;72.55
57779;BME280;43608;49.486;9.640;2022-08-14T02:14:00;98284.94;;;15.75;72.81
57779;BME280;43608;49.486;9.640;2022-08-14T02:14:31;98269.31;;;15.62;72.68
57779;BME280;43608;49.486;9.640;2022-08-14T02:15:03;98250.84;;;15.55;72.70
57779;BME280;43608;49.486;9.640;2022-08-14T02:15:34;98289.53;;;15.71;72.64
57779;BME280;43608;49.486;9.640;2022-08-14T02:16:05;98278.91;;;15.68;72.72
57779;BME280;43608;49.486;9.640;2022-08-14T02:16:38;98283.34;;;15.69;72.81
57779;BME280;43608;49.486;9.640;2022-08-14T02:17:09;98286.94;;;15.68;72.73
57779;BME280;43608;49.486;9.640;2022-08-14T02:17:42;98287.81;;;15.68;72.85
57779;BME280;43608;49.486;9.640;2022-08-14T02:18:13;98284.38;;;15.65;72.81
57779;BME280;43608;49.486;9.640;2022-08-14T02:18:44;98282.66;;;15.62;72.85
57779;BME280;43608;49.486;9.640;2022-08-14T02:19:16;98280.81;;;15.64;73.01
57779;BME280;43608;49.486;9.640;2022-08-14T02:19:47;98278.19;;;15.63;73.00
57779;BME280;43608;49.486;9.640;2022-08-14T02:20:17;98284.50;;;15.60;72.89
57779;BME280;43608;49.486;9.640;2022-08-14T02:20:49;98287.13;;;15.62;72.95
57779;BME280;43608;49.486;9.640;2022-08-14T02:21:20;98282.72;;;15.61;73.04
57779;BME280;43608;49.486;9.640;2022-08-14T02:21:52;98277.56;;;15.55;73.12
57779;BME280;43608;49.486;9.640;2022-08-14T02:22:27;98274.88;;;15.55;72.99
57779;BME280;43608;49.486;9.640;2022-08-14T02:22:59;98247.75;;;15.40;73.11
57779;BME280;43608;49.486;9.640;2022-08-14T02:23:30;98276.53;;;15.59;73.17
57779;BME280;43608;49.486;9.640;2022-08-14T02:24:03;98283.69;;;15.58;73.07
57779;BME280;43608;49.486;9.640;2022-08-14T02:24:33;98282.78;;;15.58;73.15
57779;BME280;43608;49.486;9.640;2022-08-14T02:25:04;98284.59;;;15.57;73.02
57779;BME280;43608;49.486;9.640;2022-08-14T02:25:35;98281.97;;;15.56;73.17
57779;BME280;43608;49.486;9.640;2022-08-14T02:26:15;98258.38;;;15.42;73.24
57779;BME280;43608;49.486;9.640;2022-08-14T02:26:46;98277.56;;;15.55;73.25
57779;BME280;43608;49.486;9.640;2022-08-14T02:27:19;98282.91;;;15.55;73.22
57779;BME280;43608;49.486;9.640;2022-08-14T02:27:49;98264.34;;;15.50;73.36
57779;BME280;43608;49.486;9.640;2022-08-14T02:28:19;98282.06;;;15.52;73.38
57779;BME280;43608;49.486;9.640;2022-08-14T02:28:53;98270.63;;;15.49;73.34
57779;BME280;43608;49.486;9.640;2022-08-14T02:29:25;98277.69;;;15.50;73.49
57779;BME280;43608;49.486;9.640;2022-08-14T02:29:56;98274.22;;;15.48;73.46
57779;BME280;43608;49.486;9.640;2022-08-14T02:30:26;98275.97;;;15.47;73.28
57779;BME280;43608;49.486;9.640;2022-08-14T02:30:58;98282.22;;;15.48;73.13
57779;BME280;43608;49.486;9.640;2022-08-14T02:31:32;98281.38;;;15.46;73.49
57779;BME280;43608;49.486;9.640;2022-08-14T02:32:03;98226.22;;;15.16;73.53
57779;BME280;43608;49.486;9.640;2022-08-14T02:32:34;98275.22;;;15.44;73.54
57779;BME280;43608;49.486;9.640;2022-08-14T02:33:06;98272.56;;;15.42;73.30
57779;BME280;43608;49.486;9.640;2022-08-14T02:33:36;98234.91;;;15.23;73.48
57779;BME280;43608;49.486;9.640;2022-08-14T02:34:28;98266.44;;;15.40;73.76
57779;BME280;43608;49.486;9.640;2022-08-14T02:35:01;98259.38;;;15.38;73.65
57779;BME280;43608;49.486;9.640;2022-08-14T02:35:32;98258.50;;;15.37;73.75
57779;BME280;43608;49.486;9.640;2022-08-14T02:36:04;98262.06;;;15.38;73.53
57779;BME280;43608;49.486;9.640;2022-08-14T02:36:34;98228.84;;;15.18;73.69
57779;BME280;43608;49.486;9.640;2022-08-14T02:37:07;98256.91;;;15.31;73.79
57779;BME280;43608;49.486;9.640;2022-08-14T02:37:39;98242.72;;;15.29;73.57
57779;BME280;43608;49.486;9.640;2022-08-14T02:38:09;98244.47;;;15.30;73.78
57779;BME280;43608;49.486;9.640;2022-08-14T02:38:40;98250.53;;;15.35;73.92
57779;BME280;43608;49.486;9.640;2022-08-14T02:39:12;98258.53;;;15.35;73.60
57779;BME280;43608;49.486;9.640;2022-08-14T02:39:44;98257.75;;;15.33;73.89
57779;BME280;43608;49.486;9.640;2022-08-14T02:40:16;98265.69;;;15.35;73.94
57779;BME280;43608;49.486;9.640;2022-08-14T02:40:47;98252.41;;;15.32;74.04
57779;BME280;43608;49.486;9.640;2022-08-14T02:41:18;98258.59;;;15.34;74.11
57779;BME280;43608;49.486;9.640;2022-08-14T02:41:48;98257.75;;;15.33;74.02
57779;BME280;43608;49.486;9.640;2022-08-14T02:42:21;98256.84;;;15.33;74.01
57779;BME280;43608;49.486;9.640;2022-08-14T02:42:53;98260.44;;;15.32;74.71
57779;BME280;43608;49.486;9.640;2022-08-14T02:43:25;98235.88;;;15.20;74.32
57779;BME280;43608;49.486;9.640;2022-08-14T02:44:03;98257.75;;;15.32;74.36
57779;BME280;43608;49.486;9.640;2022-08-14T02:44:33;98253.38;;;15.31;74.23
57779;BME280;43608;49.486;9.640;2022-08-14T02:45:05;98248.94;;;15.30;74.67
57779;BME280;43608;49.486;9.640;2022-08-14T02:45:36;98249.84;;;15.29;74.32
57779;BME280;43608;49.486;9.640;2022-08-14T02:46:07;98251.66;;;15.28;74.33
57779;BME280;43608;49.486;9.640;2022-08-14T02:46:40;98248.09;;;15.28;74.41
57779;BME280;43608;49.486;9.640;2022-08-14T02:47:13;98250.78;;;15.28;74.31
57779;BME280;43608;49.486;9.640;2022-08-14T02:47:44;98244.63;;;15.26;74.35
57779;BME280;43608;49.486;9.640;2022-08-14T02:48:15;98229.81;;;15.15;74.27
57779;BME280;43608;49.486;9.640;2022-08-14T02:48:45;98225.38;;;15.14;74.30
57779;BME280;43608;49.486;9.640;2022-08-14T02:49:16;98243.72;;;15.25;74.16
57779;BME280;43608;49.486;9.640;2022-08-14T02:49:47;98240.19;;;15.25;74.17
57779;BME280;43608;49.486;9.640;2022-08-14T02:50:17;98235.78;;;15.24;74.25